Time,TemperatureF,DewpointF,PressureIn,WindDirection,WindDirectionDegrees,WindSpeedMPH,WindSpeedGustMPH,Humidity,HourlyPrecipIn,Conditions,Clouds,dailyrainin,SoftwareType,DateUTC
2015-09-03 00:14:00,67.5,63.5,29.91,ESE,112,0.0,-999.0,87,-99.99,,,0.00,Acu-Link.com,2015-09-03 04:14:00,
2015-09-03 00:29:00,67.3,63.3,29.91,East,90,0.0,-999.0,87,-99.99,,,0.00,Acu-Link.com,2015-09-03 04:29:00,
2015-09-03 00:44:00,67.3,63.3,29.90,SE,135,0.0,-999.0,87,-99.99,,,0.00,Acu-Link.com,2015-09-03 04:44:00,
2015-09-03 00:59:00,67.3,63.3,29.90,NE,45,0.0,-999.0,87,-99.99,,,0.00,Acu-Link.com,2015-09-03 04:59:00,
2015-09-03 01:14:00,67.3,63.3,29.90,South,180,0.0,-999.0,87,-99.99,,,0.00,Acu-Link.com,2015-09-03 05:14:00,
2015-09-03 01:29:00,66.9,62.9,29.90,South,180,0.0,-999.0,87,-99.99,,,0.00,Acu-Link.com,2015-09-03 05:29:00,
2015-09-03 01:44:00,66.9,62.9,29.89,South,180,0.0,-999.0,87,-99.99,,,0.00,Acu-Link.com,2015-09-03 05:44:00,
2015-09-03 01:59:00,67.1,63.1,29.89,SSW,202,0.0,-999.0,87,-99.99,,,0.00,Acu-Link.com,2015-09-03 05:59:00,
2015-09-03 02:15:00,67.5,63.8,29.89,South,180,0.0,-999.0,88,-99.99,,,0.00,Acu-Link.com,2015-09-03 06:15:00,
2015-09-03 02:30:00,67.3,63.6,29.88,SSE,157,0.0,-999.0,88,-99.99,,,0.00,Acu-Link.com,2015-09-03 06:30:00,
2015-09-03 02:45:00,66.7,63.0,29.88,South,180,0.0,-999.0,88,-99.99,,,0.00,Acu-Link.com,2015-09-03 06:45:00,
2015-09-03 03:00:00,66.6,62.9,29.88,South,180,0.0,-999.0,88,-99.99,,,0.00,Acu-Link.com,2015-09-03 07:00:00,
2015-09-03 03:15:00,66.2,62.5,29.88,SE,135,0.0,-999.0,88,-99.99,,,0.00,Acu-Link.com,2015-09-03 07:15:00,
2015-09-03 03:30:00,66.2,62.5,29.88,South,180,0.0,-999.0,88,-99.99,,,0.00,Acu-Link.com,2015-09-03 07:30:00,
2015-09-03 03:46:00,66.7,63.0,29.88,SE,135,0.0,-999.0,88,-99.99,,,0.00,Acu-Link.com,2015-09-03 07:46:00,
2015-09-03 04:01:00,66.2,62.5,29.89,NE,45,0.0,-999.0,88,-99.99,,,0.00,Acu-Link.com,2015-09-03 08:01:00,
2015-09-03 04:16:00,65.8,62.1,29.90,SW,225,0.0,-999.0,88,-99.99,,,0.00,Acu-Link.com,2015-09-03 08:16:00,
2015-09-03 04:31:00,65.8,62.1,29.89,WNW,292,0.0,-999.0,88,-99.99,,,0.00,Acu-Link.com,2015-09-03 08:31:00,
2015-09-03 04:46:00,65.7,62.0,29.90,ENE,67,0.0,-999.0,88,-99.99,,,0.00,Acu-Link.com,2015-09-03 08:46:00,
2015-09-03 05:01:00,65.5,61.8,29.89,SSE,157,0.0,-999.0,88,-99.99,,,0.00,Acu-Link.com,2015-09-03 09:01:00,
2015-09-03 05:17:00,65.5,61.8,29.89,SSW,202,0.0,-999.0,88,-99.99,,,0.00,Acu-Link.com,2015-09-03 09:17:00,
2015-09-03 05:32:00,65.5,61.8,29.89,SSW,202,0.0,-999.0,88,-99.99,,,0.00,Acu-Link.com,2015-09-03 09:32:00,
2015-09-03 05:47:00,65.1,61.5,29.90,SSW,202,0.0,-999.0,88,-99.99,,,0.00,Acu-Link.com,2015-09-03 09:47:00,
2015-09-03 06:02:00,64.9,61.3,29.90,SSE,157,0.0,-999.0,88,-99.99,,,0.00,Acu-Link.com,2015-09-03 10:02:00,
2015-09-03 06:17:00,64.9,61.3,29.90,SE,135,0.0,-999.0,88,-99.99,,,0.00,Acu-Link.com,2015-09-03 10:17:00,
2015-09-03 06:33:00,65.1,61.5,29.91,SE,135,0.0,-999.0,88,-99.99,,,0.00,Acu-Link.com,2015-09-03 10:33:00,
2015-09-03 06:48:00,65.1,61.5,29.91,SE,135,0.0,-999.0,88,-99.99,,,0.00,Acu-Link.com,2015-09-03 10:48:00,
2015-09-03 07:03:00,65.5,61.8,29.90,East,90,0.0,-999.0,88,-99.99,,,0.00,Acu-Link.com,2015-09-03 11:03:00,
2015-09-03 07:18:00,65.5,61.8,29.91,East,90,0.0,-999.0,88,-99.99,,,0.00,Acu-Link.com,2015-09-03 11:18:00,
2015-09-03 07:33:00,66.2,62.5,29.91,East,90,0.0,-999.0,88,-99.99,,,0.00,Acu-Link.com,2015-09-03 11:33:00,
2015-09-03 07:49:00,67.1,63.4,29.91,East,90,0.0,-999.0,88,-99.99,,,0.00,Acu-Link.com,2015-09-03 11:49:00,
2015-09-03 08:04:00,68.2,64.5,29.91,East,90,0.0,-999.0,88,-99.99,,,0.00,Acu-Link.com,2015-09-03 12:04:00,
2015-09-03 08:19:00,69.3,65.6,29.91,East,90,0.0,-999.0,88,-99.99,,,0.00,Acu-Link.com,2015-09-03 12:19:00,
2015-09-03 08:34:00,70.0,65.9,29.91,East,90,0.0,-999.0,87,-99.99,,,0.00,Acu-Link.com,2015-09-03 12:34:00,
2015-09-03 08:49:00,70.9,66.2,29.91,East,90,0.0,-999.0,85,-99.99,,,0.00,Acu-Link.com,2015-09-03 12:49:00,
2015-09-03 09:04:00,72.3,67.2,29.91,NE,45,0.0,-999.0,84,-99.99,,,0.00,Acu-Link.com,2015-09-03 13:04:00,
2015-09-03 09:20:00,74.1,67.9,29.90,SSW,202,2.7,-999.0,81,-99.99,,,0.00,Acu-Link.com,2015-09-03 13:20:00,
2015-09-03 09:35:00,74.8,67.8,29.90,SSE,157,1.7,-999.0,79,-99.99,,,0.00,Acu-Link.com,2015-09-03 13:35:00,
2015-09-03 09:50:00,76.1,68.7,29.90,ENE,67,1.7,-999.0,78,-99.99,,,0.00,Acu-Link.com,2015-09-03 13:50:00,
2015-09-03 10:05:00,77.4,69.2,29.90,ESE,112,0.0,-999.0,76,-99.99,,,0.00,Acu-Link.com,2015-09-03 14:05:00,
2015-09-03 10:20:00,78.1,69.1,29.90,NNE,22,2.7,-999.0,74,-99.99,,,0.00,Acu-Link.com,2015-09-03 14:20:00,
2015-09-03 10:36:00,79.5,70.1,29.89,SW,225,1.1,-999.0,73,-99.99,,,0.00,Acu-Link.com,2015-09-03 14:36:00,
2015-09-03 10:51:00,80.2,70.3,29.89,SSE,157,1.1,-999.0,72,-99.99,,,0.00,Acu-Link.com,2015-09-03 14:51:00,
2015-09-03 11:09:00,80.8,70.5,29.89,SSW,202,1.1,-999.0,71,-99.99,,,0.00,Acu-Link.com,2015-09-03 15:09:00,
2015-09-03 11:24:00,79.9,70.5,29.90,ESE,112,0.0,-999.0,73,-99.99,,,0.00,Acu-Link.com,2015-09-03 15:24:00,
2015-09-03 11:39:00,79.5,70.1,29.90,NE,45,3.2,-999.0,73,-99.99,,,0.00,Acu-Link.com,2015-09-03 15:39:00,
2015-09-03 11:54:00,80.6,69.9,29.89,NW,315,2.2,-999.0,70,-99.99,,,0.00,Acu-Link.com,2015-09-03 15:54:00,
2015-09-03 12:09:00,82.0,70.4,29.88,NE,45,1.7,-999.0,68,-99.99,,,0.00,Acu-Link.com,2015-09-03 16:09:00,
2015-09-03 12:24:00,84.0,70.5,29.88,WSW,247,1.7,-999.0,64,-99.99,,,0.00,Acu-Link.com,2015-09-03 16:24:00,
2015-09-03 12:39:00,83.7,70.7,29.88,NE,45,1.7,-999.0,65,-99.99,,,0.00,Acu-Link.com,2015-09-03 16:39:00,